Time;durP1;ratioP1;P1;durP2;ratioP2;P2;SDS_P1;SDS_P2;PMS_P1;PMS_P2;Temp;Humidity;BMP_temperature;BMP_pressure;BME280_temperature;BME280_humidity;BME280_pressure;Samples;Min_cycle;Max_cycle;Signal;HPM_P1;HPM_P2
2022/04/15 00:01:47;;;;;;;9.68;5.35;;;;;;;;;;5072053;28;20041;-89
2022/04/15 00:04:14;;;;;;;8.98;4.93;;;;;;;;;;5074361;28;20024;-71
2022/04/15 00:06:40;;;;;;;7.97;4.70;;;;;;;;;;5072244;28;20016;-89
2022/04/15 00:09:06;;;;;;;11.73;3.90;;;;;;;;;;5074195;28;20027;-89
2022/04/15 00:11:32;;;;;;;8.68;4.65;;;;;;;;;;5072426;28;20052;-88
2022/04/15 00:14:00;;;;;;;9.18;4.53;;;;;;;;;;5071648;28;20097;-82
2022/04/15 00:16:26;;;;;;;9.82;4.30;;;;;;;;;;5070823;28;20040;-76
2022/04/15 00:18:52;;;;;;;9.07;4.15;;;;;;;;;;5072626;28;20025;-85
2022/04/15 00:21:18;;;;;;;9.98;4.75;;;;;;;;;;5057987;28;20373;-89
2022/04/15 00:23:44;;;;;;;7.38;3.95;;;;;;;;;;5053920;28;20021;-71
2022/04/15 00:26:10;;;;;;;7.38;4.63;;;;;;;;;;5065873;28;20397;-88
2022/04/15 00:28:36;;;;;;;8.88;4.75;;;;;;;;;;5059790;28;20159;-88
2022/04/15 00:31:02;;;;;;;11.40;4.53;;;;;;;;;;5073417;28;20029;-88
2022/04/15 00:33:29;;;;;;;10.40;4.30;;;;;;;;;;5071795;28;20436;-88
2022/04/15 00:35:55;;;;;;;6.60;4.13;;;;;;;;;;5055333;28;20116;-87
2022/04/15 00:38:21;;;;;;;6.47;3.88;;;;;;;;;;5059548;28;20397;-89
2022/04/15 00:40:47;;;;;;;7.68;3.72;;;;;;;;;;5055448;28;20063;-86
2022/04/15 00:43:13;;;;;;;5.47;3.33;;;;;;;;;;5054132;28;20033;-85
2022/04/15 00:45:39;;;;;;;5.43;3.33;;;;;;;;;;5054101;28;20104;-85
2022/04/15 00:48:07;;;;;;;5.95;3.65;;;;;;;;;;5054040;28;20036;-87
2022/04/15 00:50:34;;;;;;;5.63;3.47;;;;;;;;;;5056247;28;20821;-86
2022/04/15 00:53:06;;;;;;;5.53;3.22;;;;;;;;;;5060158;28;20033;-84
2022/04/15 00:55:32;;;;;;;4.53;3.20;;;;;;;;;;5060987;28;20120;-87
2022/04/15 00:58:00;;;;;;;7.25;3.63;;;;;;;;;;5057548;28;20051;-88
2022/04/15 01:00:27;;;;;;;7.10;3.53;;;;;;;;;;5059826;28;20539;-89
2022/04/15 01:02:54;;;;;;;7.68;3.53;;;;;;;;;;5059845;28;20032;-79
2022/04/15 01:05:20;;;;;;;5.03;3.50;;;;;;;;;;5073756;28;20062;-86
2022/04/15 01:07:49;;;;;;;7.18;3.30;;;;;;;;;;5077339;28;20017;-85
2022/04/15 01:10:16;;;;;;;5.47;3.35;;;;;;;;;;5064483;28;20029;-80
2022/04/15 01:12:46;;;;;;;5.65;3.45;;;;;;;;;;5076491;28;20044;-89
2022/04/15 01:15:13;;;;;;;5.03;3.20;;;;;;;;;;5071508;28;20089;-86
2022/04/15 01:17:40;;;;;;;5.00;3.30;;;;;;;;;;5077430;28;20032;-69
2022/04/15 01:20:10;;;;;;;6.05;3.65;;;;;;;;;;5075693;28;20119;-85
2022/04/15 01:22:40;;;;;;;5.80;3.55;;;;;;;;;;5071481;28;20040;-86
2022/04/15 01:25:07;;;;;;;5.97;3.63;;;;;;;;;;5061587;28;20520;-77
2022/04/15 01:27:40;;;;;;;8.02;3.50;;;;;;;;;;5075973;28;20024;-90
2022/04/15 01:30:10;;;;;;;7.07;4.00;;;;;;;;;;5067966;28;20433;-83
2022/04/15 01:32:36;;;;;;;6.05;3.78;;;;;;;;;;5058249;28;20025;-89
2022/04/15 01:35:02;;;;;;;7.25;3.83;;;;;;;;;;5057758;28;20095;-89
2022/04/15 01:37:31;;;;;;;6.45;3.78;;;;;;;;;;5074677;28;20074;-86
2022/04/15 01:39:57;;;;;;;7.28;3.85;;;;;;;;;;5067943;28;20017;-90
2022/04/15 01:42:25;;;;;;;7.13;3.70;;;;;;;;;;5064263;28;20112;-84
2022/04/15 01:44:51;;;;;;;5.68;3.67;;;;;;;;;;5074663;28;20053;-88
2022/04/15 01:47:17;;;;;;;5.57;3.63;;;;;;;;;;5074413;28;20035;-90
2022/04/15 01:49:45;;;;;;;7.28;3.90;;;;;;;;;;5073665;28;20025;-84
2022/04/15 01:52:13;;;;;;;9.95;4.35;;;;;;;;;;5076637;28;20460;-85
2022/04/15 01:54:39;;;;;;;7.05;3.88;;;;;;;;;;5060041;28;20033;-81
2022/04/15 01:57:05;;;;;;;6.43;3.67;;;;;;;;;;5063305;28;20116;-72
2022/04/15 01:59:31;;;;;;;6.38;4.03;;;;;;;;;;5066114;28;20061;-88
2022/04/15 02:01:57;;;;;;;8.20;4.15;;;;;;;;;;5073797;28;20033;-70
2022/04/15 02:04:25;;;;;;;7.55;3.92;;;;;;;;;;5065516;28;20434;-88
2022/04/15 02:06:51;;;;;;;8.43;4.20;;;;;;;;;;5076031;28;20044;-84
2022/04/15 02:09:17;;;;;;;6.90;3.95;;;;;;;;;;5074335;28;20028;-86
2022/04/15 02:11:43;;;;;;;5.97;4.30;;;;;;;;;;5081268;28;20076;-69
2022/04/15 02:14:10;;;;;;;9.32;5.68;;;;;;;;;;5084434;28;20054;-70
2022/04/15 02:16:36;;;;;;;7.53;5.20;;;;;;;;;;5080104;28;20037;-70
2022/04/15 02:19:02;;;;;;;7.38;4.50;;;;;;;;;;5093108;28;20440;-70
2022/04/15 02:21:28;;;;;;;6.57;5.03;;;;;;;;;;5120280;28;20020;-70
2022/04/15 02:23:54;;;;;;;13.18;5.22;;;;;;;;;;5116270;28;20047;-75
2022/04/15 02:26:20;;;;;;;6.90;4.15;;;;;;;;;;5100839;28;20020;-83
2022/04/15 02:28:46;;;;;;;9.82;5.68;;;;;;;;;;5076943;28;20486;-72
2022/04/15 02:31:13;;;;;;;8.93;4.60;;;;;;;;;;5090632;28;20032;-87
2022/04/15 02:33:39;;;;;;;7.93;4.18;;;;;;;;;;5083088;28;20482;-84
2022/04/15 02:36:05;;;;;;;5.20;4.10;;;;;;;;;;5084039;28;20040;-86
2022/04/15 02:38:31;;;;;;;9.20;4.43;;;;;;;;;;5098453;28;20051;-70
2022/04/15 02:40:58;;;;;;;8.15;4.45;;;;;;;;;;5088162;28;20029;-79
2022/04/15 02:43:31;;;;;;;9.00;4.65;;;;;;;;;;5079313;28;20033;-83
2022/04/15 02:46:04;;;;;;;6.65;4.07;;;;;;;;;;5078823;28;20061;-84
2022/04/15 02:48:31;;;;;;;7.32;4.55;;;;;;;;;;5077713;28;20029;-73
2022/04/15 02:50:57;;;;;;;8.60;4.25;;;;;;;;;;5085383;28;20066;-77
2022/04/15 02:53:24;;;;;;;10.43;4.35;;;;;;;;;;5100893;28;20039;-74
2022/04/15 02:55:50;;;;;;;7.50;4.65;;;;;;;;;;5085990;28;20059;-74
2022/04/15 02:58:16;;;;;;;7.13;4.70;;;;;;;;;;5079887;28;20072;-79
2022/04/15 03:00:43;;;;;;;6.38;4.10;;;;;;;;;;5087490;28;20039;-77
2022/04/15 03:03:09;;;;;;;9.15;4.32;;;;;;;;;;5106704;28;20025;-85
2022/04/15 03:05:41;;;;;;;6.45;4.20;;;;;;;;;;5084012;28;20037;-87
2022/04/15 03:08:07;;;;;;;10.40;4.22;;;;;;;;;;5071064;28;20029;-89
2022/04/15 03:10:33;;;;;;;10.32;4.28;;;;;;;;;;5074915;28;20043;-88
2022/04/15 03:12:59;;;;;;;7.57;4.07;;;;;;;;;;5087969;28;20025;-85
2022/04/15 03:15:26;;;;;;;7.10;4.43;;;;;;;;;;5098571;28;20047;-69
2022/04/15 03:17:52;;;;;;;6.00;4.40;;;;;;;;;;5098731;28;20016;-78
2022/04/15 03:20:18;;;;;;;5.15;3.90;;;;;;;;;;5080696;28;20033;-72
2022/04/15 03:22:44;;;;;;;7.95;4.38;;;;;;;;;;5078643;28;20060;-70
2022/04/15 03:25:12;;;;;;;6.50;4.03;;;;;;;;;;5078161;28;20029;-69
2022/04/15 03:27:39;;;;;;;9.90;4.15;;;;;;;;;;5076396;28;20066;-69
2022/04/15 03:30:05;;;;;;;6.90;4.43;;;;;;;;;;5078642;28;20023;-69
2022/04/15 03:32:31;;;;;;;6.82;4.22;;;;;;;;;;5078446;28;20033;-69
2022/04/15 03:35:00;;;;;;;7.03;4.40;;;;;;;;;;5076867;28;20093;-70
2022/04/15 03:37:29;;;;;;;8.82;3.95;;;;;;;;;;5074966;28;20035;-69
2022/04/15 03:39:55;;;;;;;6.55;3.85;;;;;;;;;;5073274;28;20017;-69
2022/04/15 03:42:21;;;;;;;6.82;4.13;;;;;;;;;;5076869;28;20351;-69
2022/04/15 03:44:47;;;;;;;9.70;4.82;;;;;;;;;;5075407;28;20043;-69
2022/04/15 03:47:13;;;;;;;7.68;4.50;;;;;;;;;;5077368;28;20009;-69
2022/04/15 03:49:39;;;;;;;9.25;4.50;;;;;;;;;;5075765;28;20037;-69
2022/04/15 03:52:06;;;;;;;6.40;4.20;;;;;;;;;;5072517;28;20029;-69
2022/04/15 03:54:32;;;;;;;8.02;4.43;;;;;;;;;;5074828;28;20028;-69
2022/04/15 03:56:58;;;;;;;18.17;5.18;;;;;;;;;;5098466;28;20115;-70
2022/04/15 03:59:24;;;;;;;12.90;4.50;;;;;;;;;;5093688;28;20001;-69
2022/04/15 04:01:50;;;;;;;7.13;4.85;;;;;;;;;;5079218;28;20033;-69
2022/04/15 04:04:16;;;;;;;10.73;4.32;;;;;;;;;;5078867;28;20036;-69
2022/04/15 04:06:42;;;;;;;9.85;4.38;;;;;;;;;;5077212;28;20017;-69
2022/04/15 04:09:09;;;;;;;11.10;5.30;;;;;;;;;;5078965;28;20021;-69
2022/04/15 04:11:35;;;;;;;10.35;5.00;;;;;;;;;;5078801;28;20087;-69
2022/04/15 04:14:03;;;;;;;10.98;5.03;;;;;;;;;;5078433;28;20073;-69
2022/04/15 04:16:29;;;;;;;8.52;4.60;;;;;;;;;;5086161;28;20013;-69
2022/04/15 04:18:55;;;;;;;8.75;5.10;;;;;;;;;;5086994;28;20052;-69
2022/04/15 04:21:21;;;;;;;13.55;5.22;;;;;;;;;;5073442;28;20029;-69
2022/04/15 04:23:48;;;;;;;8.90;5.25;;;;;;;;;;5164314;23;20033;-73
2022/04/15 04:26:14;;;;;;;15.10;5.25;;;;;;;;;;5077774;28;20009;-69
2022/04/15 04:28:40;;;;;;;10.80;4.80;;;;;;;;;;5076911;28;20048;-69
2022/04/15 04:31:09;;;;;;;12.10;6.07;;;;;;;;;;5076940;28;20036;-69
2022/04/15 04:33:35;;;;;;;11.73;5.53;;;;;;;;;;5075754;28;20091;-68
2022/04/15 04:36:01;;;;;;;12.95;5.78;;;;;;;;;;5074410;28;20071;-69
2022/04/15 04:38:27;;;;;;;10.68;5.10;;;;;;;;;;5073098;28;20025;-70
2022/04/15 04:40:53;;;;;;;12.43;5.47;;;;;;;;;;5075563;28;20029;-69
2022/04/15 04:43:19;;;;;;;13.35;6.40;;;;;;;;;;5075473;28;20071;-70
2022/04/15 04:45:46;;;;;;;12.68;5.18;;;;;;;;;;5055239;28;20051;-77
2022/04/15 04:48:12;;;;;;;8.38;5.00;;;;;;;;;;5055731;28;20021;-79
2022/04/15 04:50:39;;;;;;;12.55;5.60;;;;;;;;;;5052419;28;20021;-89
2022/04/15 04:53:05;;;;;;;17.00;5.85;;;;;;;;;;5057453;28;20068;-89
2022/04/15 04:55:31;;;;;;;21.73;6.03;;;;;;;;;;5053385;28;20041;-88
2022/04/15 04:57:57;;;;;;;24.10;5.57;;;;;;;;;;5062549;28;20036;-86
2022/04/15 05:00:23;;;;;;;15.68;5.47;;;;;;;;;;5052894;28;20041;-74
2022/04/15 05:02:49;;;;;;;14.05;6.43;;;;;;;;;;5051142;28;20017;-88
2022/04/15 05:05:15;;;;;;;17.83;5.53;;;;;;;;;;5051319;28;20017;-70
2022/04/15 05:07:41;;;;;;;21.40;6.60;;;;;;;;;;5053172;28;20063;-75
2022/04/15 05:10:08;;;;;;;16.77;6.60;;;;;;;;;;5045934;28;20029;-71
2022/04/15 05:12:34;;;;;;;15.98;6.60;;;;;;;;;;5040468;28;20150;-70
2022/04/15 05:15:00;;;;;;;13.45;6.45;;;;;;;;;;5049291;28;20041;-78
2022/04/15 05:17:26;;;;;;;18.80;7.00;;;;;;;;;;5051121;28;20076;-70
2022/04/15 05:19:52;;;;;;;20.48;8.07;;;;;;;;;;5052107;28;20025;-70
2022/04/15 05:22:18;;;;;;;20.67;7.32;;;;;;;;;;5051771;28;20055;-85
2022/04/15 05:24:44;;;;;;;18.48;6.93;;;;;;;;;;5052717;28;20087;-76
2022/04/15 05:27:12;;;;;;;24.08;7.00;;;;;;;;;;5052003;28;20506;-76
2022/04/15 05:29:38;;;;;;;18.77;6.75;;;;;;;;;;5034262;28;20619;-79
2022/04/15 05:32:05;;;;;;;17.27;7.50;;;;;;;;;;5032608;28;20380;-76
2022/04/15 05:34:31;;;;;;;15.45;6.93;;;;;;;;;;5051616;28;20025;-73
2022/04/15 05:36:57;;;;;;;15.07;6.57;;;;;;;;;;5051714;28;20036;-74
2022/04/15 05:39:23;;;;;;;13.95;6.90;;;;;;;;;;5055174;28;20048;-70
2022/04/15 05:41:49;;;;;;;13.65;6.88;;;;;;;;;;5053473;28;20501;-72
2022/04/15 05:44:16;;;;;;;20.95;7.80;;;;;;;;;;5036049;28;20025;-75
2022/04/15 05:46:42;;;;;;;16.52;6.70;;;;;;;;;;5051775;28;20378;-76
2022/04/15 05:49:13;;;;;;;19.95;7.75;;;;;;;;;;5053869;28;20025;-73
2022/04/15 05:51:40;;;;;;;24.77;8.35;;;;;;;;;;5050670;28;20020;-85
2022/04/15 05:54:06;;;;;;;19.35;8.20;;;;;;;;;;5050831;28;20025;-72
2022/04/15 05:56:32;;;;;;;17.88;7.45;;;;;;;;;;5053623;28;20067;-79
2022/04/15 05:58:58;;;;;;;19.27;7.10;;;;;;;;;;5056090;28;20382;-84
2022/04/15 06:01:24;;;;;;;12.55;6.03;;;;;;;;;;5053948;28;20486;-73
2022/04/15 06:03:50;;;;;;;15.18;6.38;;;;;;;;;;5052529;28;20025;-75
2022/04/15 06:06:16;;;;;;;12.77;6.15;;;;;;;;;;5053521;28;20024;-75
2022/04/15 06:08:42;;;;;;;12.82;5.43;;;;;;;;;;5052934;28;20108;-75
2022/04/15 06:11:08;;;;;;;12.05;6.47;;;;;;;;;;5053459;28;20032;-76
2022/04/15 06:13:34;;;;;;;13.35;6.32;;;;;;;;;;5053605;28;20032;-75
2022/04/15 06:16:00;;;;;;;21.25;7.78;;;;;;;;;;5052479;28;20033;-79
2022/04/15 06:18:34;;;;;;;20.80;7.28;;;;;;;;;;5050257;28;20138;-75
2022/04/15 06:21:01;;;;;;;19.20;8.38;;;;;;;;;;5054954;28;20398;-87
2022/04/15 06:23:27;;;;;;;23.92;9.13;;;;;;;;;;5052768;28;20111;-78
2022/04/15 06:25:53;;;;;;;21.08;9.10;;;;;;;;;;5052469;28;20044;-75
2022/04/15 06:28:22;;;;;;;26.33;9.13;;;;;;;;;;5070990;28;20027;-79
2022/04/15 06:30:49;;;;;;;20.55;7.63;;;;;;;;;;5053758;28;20031;-78
2022/04/15 06:33:16;;;;;;;17.25;6.93;;;;;;;;;;5050970;28;20022;-78
2022/04/15 06:35:42;;;;;;;15.30;5.82;;;;;;;;;;5051678;28;20041;-83
2022/04/15 06:38:09;;;;;;;14.52;6.10;;;;;;;;;;5052543;28;20036;-74
2022/04/15 06:40:38;;;;;;;16.42;6.53;;;;;;;;;;5049701;28;20037;-71
2022/04/15 06:43:04;;;;;;;20.08;5.50;;;;;;;;;;5054051;28;20124;-71
2022/04/15 06:45:30;;;;;;;15.18;8.15;;;;;;;;;;5048419;28;20033;-72
2022/04/15 06:47:56;;;;;;;20.55;6.28;;;;;;;;;;5051647;28;20025;-77
2022/04/15 06:50:22;;;;;;;15.27;6.10;;;;;;;;;;5052559;28;20056;-77
2022/04/15 06:52:49;;;;;;;14.02;5.57;;;;;;;;;;5036201;28;20028;-77
2022/04/15 06:55:15;;;;;;;10.95;5.35;;;;;;;;;;5052918;28;20037;-78
2022/04/15 06:57:42;;;;;;;10.60;4.63;;;;;;;;;;5052564;28;20021;-76
2022/04/15 07:00:08;;;;;;;13.80;5.35;;;;;;;;;;5051304;28;20139;-76
2022/04/15 07:02:35;;;;;;;9.95;4.60;;;;;;;;;;5052244;28;20056;-81
2022/04/15 07:05:06;;;;;;;10.73;4.90;;;;;;;;;;5051914;28;20032;-75
2022/04/15 07:07:33;;;;;;;12.93;5.20;;;;;;;;;;5046970;28;20040;-75
2022/04/15 07:09:59;;;;;;;10.02;5.32;;;;;;;;;;5049936;28;20052;-77
2022/04/15 07:12:27;;;;;;;9.02;5.53;;;;;;;;;;5058656;28;20100;-74
2022/04/15 07:14:53;;;;;;;10.35;4.82;;;;;;;;;;5053970;28;20433;-75
2022/04/15 07:17:19;;;;;;;13.05;6.00;;;;;;;;;;5054459;28;20033;-79
2022/04/15 07:19:45;;;;;;;18.20;6.55;;;;;;;;;;5074043;28;20029;-81
2022/04/15 07:22:11;;;;;;;16.55;6.38;;;;;;;;;;5057913;28;20059;-75
2022/04/15 07:24:37;;;;;;;19.90;7.38;;;;;;;;;;5043987;28;20033;-78
2022/04/15 07:27:05;;;;;;;13.23;6.30;;;;;;;;;;5043134;28;20108;-75
2022/04/15 07:29:32;;;;;;;10.30;5.90;;;;;;;;;;5051121;28;20021;-74
2022/04/15 07:31:58;;;;;;;13.68;6.25;;;;;;;;;;5052621;28;20048;-78
2022/04/15 07:34:26;;;;;;;14.35;6.40;;;;;;;;;;5052156;28;20509;-76
2022/04/15 07:36:55;;;;;;;13.98;6.82;;;;;;;;;;5052303;28;20029;-76
2022/04/15 07:39:22;;;;;;;15.02;6.55;;;;;;;;;;5050374;28;20021;-76
2022/04/15 07:41:49;;;;;;;21.13;7.47;;;;;;;;;;5049940;28;20044;-75
2022/04/15 07:44:15;;;;;;;31.95;8.15;;;;;;;;;;5052651;28;20029;-74
2022/04/15 07:46:42;;;;;;;19.13;7.85;;;;;;;;;;5042448;28;20028;-73
2022/04/15 07:49:08;;;;;;;17.30;6.90;;;;;;;;;;5050496;28;20420;-76
2022/04/15 07:51:35;;;;;;;17.55;7.10;;;;;;;;;;5051470;28;20028;-79
2022/04/15 07:54:01;;;;;;;16.83;6.88;;;;;;;;;;5051281;28;20052;-77
2022/04/15 07:56:27;;;;;;;26.23;7.20;;;;;;;;;;5052669;28;20162;-78
2022/04/15 07:58:56;;;;;;;26.08;7.63;;;;;;;;;;5032911;28;20394;-75
2022/04/15 08:01:22;;;;;;;16.58;7.25;;;;;;;;;;5047877;28;20043;-77
2022/04/15 08:03:48;;;;;;;25.17;7.80;;;;;;;;;;5049735;28;20049;-75
2022/04/15 08:06:15;;;;;;;21.63;8.07;;;;;;;;;;5033425;28;20028;-78
2022/04/15 08:08:42;;;;;;;19.23;8.43;;;;;;;;;;5053211;28;20382;-76
2022/04/15 08:11:09;;;;;;;26.73;9.45;;;;;;;;;;5051762;28;20086;-76
2022/04/15 08:13:35;;;;;;;28.42;9.73;;;;;;;;;;5051258;28;20485;-79
2022/04/15 08:16:03;;;;;;;24.92;10.30;;;;;;;;;;5051217;28;20094;-75
2022/04/15 08:18:31;;;;;;;29.58;13.38;;;;;;;;;;5032953;28;20116;-75
2022/04/15 08:20:57;;;;;;;23.40;11.65;;;;;;;;;;5051196;28;20043;-75
2022/04/15 08:23:24;;;;;;;28.50;11.55;;;;;;;;;;5032668;28;20045;-76
2022/04/15 08:25:50;;;;;;;24.25;11.05;;;;;;;;;;5049127;28;20478;-76
2022/04/15 08:28:16;;;;;;;26.63;11.68;;;;;;;;;;5049767;28;20568;-76
2022/04/15 08:30:42;;;;;;;32.70;12.48;;;;;;;;;;5029222;28;20028;-76
2022/04/15 08:33:09;;;;;;;27.83;12.65;;;;;;;;;;5048458;28;20036;-77
2022/04/15 08:35:35;;;;;;;29.00;13.07;;;;;;;;;;5052382;28;20035;-76
2022/04/15 08:38:02;;;;;;;30.85;13.13;;;;;;;;;;5034973;28;20017;-80
2022/04/15 08:40:31;;;;;;;25.67;12.82;;;;;;;;;;5042523;28;20100;-76
2022/04/15 08:42:58;;;;;;;30.02;12.32;;;;;;;;;;5036625;28;20544;-78
2022/04/15 08:45:26;;;;;;;26.55;12.75;;;;;;;;;;5052804;28;20029;-77
2022/04/15 08:47:59;;;;;;;23.70;12.73;;;;;;;;;;5034844;28;20437;-80
2022/04/15 08:50:26;;;;;;;24.45;13.18;;;;;;;;;;5051513;28;20118;-76
2022/04/15 08:52:56;;;;;;;20.70;12.52;;;;;;;;;;5033299;28;20036;-77
2022/04/15 08:55:22;;;;;;;24.77;12.80;;;;;;;;;;5064294;28;20044;-80
2022/04/15 08:57:52;;;;;;;24.30;13.05;;;;;;;;;;5041417;28;20033;-81
2022/04/15 09:00:21;;;;;;;33.92;14.38;;;;;;;;;;5052235;28;20040;-75
2022/04/15 09:02:48;;;;;;;26.98;13.10;;;;;;;;;;5051527;28;20021;-80
2022/04/15 09:05:18;;;;;;;28.00;13.05;;;;;;;;;;5050916;28;20029;-74
2022/04/15 09:07:45;;;;;;;19.20;11.57;;;;;;;;;;5060338;28;20021;-72
2022/04/15 09:10:11;;;;;;;30.58;12.60;;;;;;;;;;5049924;28;20111;-75
2022/04/15 09:12:39;;;;;;;22.58;11.68;;;;;;;;;;5064687;28;20024;-79
2022/04/15 09:15:13;;;;;;;20.52;9.85;;;;;;;;;;5067940;28;20036;-88
2022/04/15 09:17:41;;;;;;;45.70;10.88;;;;;;;;;;5055340;28;20025;-78
2022/04/15 09:20:11;;;;;;;24.13;10.25;;;;;;;;;;5067708;28;20458;-75
2022/04/15 09:22:37;;;;;;;21.52;11.13;;;;;;;;;;5056566;28;20037;-79
2022/04/15 09:25:04;;;;;;;30.52;12.30;;;;;;;;;;5053571;28;20025;-77
2022/04/15 09:27:30;;;;;;;16.73;8.40;;;;;;;;;;5051783;28;20435;-77
2022/04/15 09:29:56;;;;;;;25.45;9.65;;;;;;;;;;5061247;28;20424;-77
2022/04/15 09:32:24;;;;;;;16.35;7.30;;;;;;;;;;5058176;28;20031;-70
2022/04/15 09:35:06;;;;;;;15.55;7.80;;;;;;;;;;5060533;28;20377;-72
2022/04/15 09:37:35;;;;;;;17.88;8.02;;;;;;;;;;5059601;28;20033;-75
2022/04/15 09:40:05;;;;;;;14.07;6.95;;;;;;;;;;5055130;28;20108;-74
2022/04/15 09:42:34;;;;;;;16.25;7.45;;;;;;;;;;5055245;28;20021;-73
2022/04/15 09:45:11;;;;;;;14.88;6.90;;;;;;;;;;5054189;28;20091;-86
2022/04/15 09:47:37;;;;;;;11.95;6.75;;;;;;;;;;5051941;28;20071;-84
2022/04/15 09:50:08;;;;;;;18.63;6.32;;;;;;;;;;5036222;28;20463;-88
2022/04/15 09:52:34;;;;;;;13.85;6.22;;;;;;;;;;5054187;28;20039;-83
2022/04/15 09:55:02;;;;;;;14.35;6.75;;;;;;;;;;5055515;28;20370;-78
2022/04/15 09:57:33;;;;;;;12.48;6.47;;;;;;;;;;5055342;28;20017;-75
2022/04/15 10:00:02;;;;;;;10.57;6.13;;;;;;;;;;5058618;28;20442;-70
2022/04/15 10:02:30;;;;;;;24.80;10.57;;;;;;;;;;5059792;28;20025;-74
2022/04/15 10:04:56;;;;;;;11.95;5.68;;;;;;;;;;5063160;28;20016;-78
2022/04/15 10:07:22;;;;;;;14.23;6.68;;;;;;;;;;5076047;28;20017;-86
2022/04/15 10:09:48;;;;;;;12.50;5.50;;;;;;;;;;5057214;28;20037;-70
2022/04/15 10:12:15;;;;;;;16.38;5.10;;;;;;;;;;5054159;28;20025;-78
2022/04/15 10:14:42;;;;;;;9.18;5.70;;;;;;;;;;5056097;28;20482;-77
2022/04/15 10:17:08;;;;;;;12.20;5.20;;;;;;;;;;5053896;28;20573;-83
2022/04/15 10:19:34;;;;;;;19.27;9.13;;;;;;;;;;5054827;28;20025;-85
2022/04/15 10:22:01;;;;;;;25.25;11.68;;;;;;;;;;5041817;28;20072;-80
2022/04/15 10:24:27;;;;;;;21.20;7.88;;;;;;;;;;5053862;28;20060;-77
2022/04/15 10:26:57;;;;;;;173.95;126.57;;;;;;;;;;5055279;28;20025;-70
2022/04/15 10:29:24;;;;;;;16.38;5.22;;;;;;;;;;5053344;28;20087;-78
2022/04/15 10:31:52;;;;;;;209.98;171.90;;;;;;;;;;5054764;28;20021;-71
2022/04/15 10:34:19;;;;;;;129.48;78.80;;;;;;;;;;5050331;28;20466;-79
2022/04/15 10:36:45;;;;;;;713.60;563.97;;;;;;;;;;5054704;28;20421;-72
2022/04/15 10:39:12;;;;;;;599.20;492.70;;;;;;;;;;5054170;28;20048;-72
2022/04/15 10:41:44;;;;;;;447.98;362.23;;;;;;;;;;5053471;28;20035;-71
2022/04/15 10:44:14;;;;;;;55.83;40.95;;;;;;;;;;5054436;28;20078;-74
2022/04/15 10:46:41;;;;;;;10.93;4.72;;;;;;;;;;5054608;28;20105;-72
2022/04/15 10:49:23;;;;;;;57.72;39.72;;;;;;;;;;5054388;28;20074;-73
2022/04/15 10:51:53;;;;;;;19.38;11.23;;;;;;;;;;5053530;28;20025;-71
2022/04/15 10:54:31;;;;;;;100.95;70.93;;;;;;;;;;5066961;28;20115;-73
2022/04/15 10:57:02;;;;;;;180.73;138.73;;;;;;;;;;5054532;28;20032;-70
2022/04/15 11:02:22;;;;;;;60.83;45.25;;;;;;;;;;5053829;28;20554;-71
2022/04/15 11:04:49;;;;;;;11.30;6.78;;;;;;;;;;5053700;28;20028;-74
2022/04/15 11:07:26;;;;;;;27.30;18.50;;;;;;;;;;5049215;28;20025;-72
2022/04/15 11:09:52;;;;;;;11.68;5.53;;;;;;;;;;5053907;28;20082;-72
2022/04/15 11:12:45;;;;;;;16.50;9.82;;;;;;;;;;5053932;28;20021;-74
2022/04/15 11:15:12;;;;;;;14.35;9.00;;;;;;;;;;4970054;28;20122;-76
2022/04/15 11:17:38;;;;;;;19.10;9.80;;;;;;;;;;4970199;28;20512;-73
2022/04/15 11:20:06;;;;;;;18.48;10.20;;;;;;;;;;4966815;28;20077;-70
2022/04/15 11:22:35;;;;;;;18.25;9.23;;;;;;;;;;4963776;28;20123;-74
2022/04/15 11:25:01;;;;;;;16.20;8.73;;;;;;;;;;4964563;28;20076;-72
2022/04/15 11:27:28;;;;;;;16.13;8.68;;;;;;;;;;4961054;28;20040;-72
2022/04/15 11:29:56;;;;;;;16.63;7.88;;;;;;;;;;4972474;28;20057;-69
2022/04/15 11:32:23;;;;;;;14.93;7.13;;;;;;;;;;4971087;28;20042;-78
2022/04/15 11:34:54;;;;;;;15.15;6.78;;;;;;;;;;4968340;28;20019;-71
2022/04/15 11:37:21;;;;;;;13.80;7.30;;;;;;;;;;4967210;28;20444;-74
2022/04/15 11:39:47;;;;;;;13.98;7.70;;;;;;;;;;4968691;28;20044;-79
2022/04/15 11:42:16;;;;;;;15.57;7.20;;;;;;;;;;4964587;28;20023;-74
2022/04/15 11:44:43;;;;;;;10.52;6.22;;;;;;;;;;4966357;28;20034;-74
2022/04/15 11:47:25;;;;;;;10.93;6.20;;;;;;;;;;4965045;28;20030;-71
2022/04/15 11:49:51;;;;;;;14.48;6.45;;;;;;;;;;4971951;28;20031;-72
2022/04/15 11:52:35;;;;;;;14.45;6.93;;;;;;;;;;5012831;28;20041;-75
2022/04/15 11:55:01;;;;;;;11.38;7.22;;;;;;;;;;5047475;28;20033;-74
2022/04/15 11:57:31;;;;;;;14.95;6.50;;;;;;;;;;5051429;28;20078;-74
2022/04/15 11:59:57;;;;;;;11.00;6.32;;;;;;;;;;5050593;28;22019;-75
2022/04/15 12:02:25;;;;;;;14.68;6.10;;;;;;;;;;5049652;28;20428;-75
2022/04/15 12:04:51;;;;;;;10.18;5.95;;;;;;;;;;5050675;28;20025;-72
2022/04/15 12:07:17;;;;;;;14.95;5.90;;;;;;;;;;5046208;28;20391;-74
2022/04/15 12:09:46;;;;;;;9.40;5.55;;;;;;;;;;5051842;28;20029;-74
2022/04/15 12:12:13;;;;;;;10.60;5.30;;;;;;;;;;5046944;28;20032;-72
2022/04/15 12:14:42;;;;;;;10.73;5.28;;;;;;;;;;5048125;28;20036;-73
2022/04/15 12:17:09;;;;;;;16.65;5.28;;;;;;;;;;5032880;28;20502;-72
2022/04/15 12:19:36;;;;;;;8.75;5.13;;;;;;;;;;5051745;28;20017;-81
2022/04/15 12:22:02;;;;;;;8.63;4.55;;;;;;;;;;5049839;28;20041;-77
2022/04/15 12:24:32;;;;;;;11.75;5.00;;;;;;;;;;5033563;28;20579;-76
2022/04/15 12:27:02;;;;;;;10.35;5.53;;;;;;;;;;5029799;28;20028;-76
2022/04/15 12:29:47;;;;;;;9.25;5.20;;;;;;;;;;5055028;28;20026;-76
2022/04/15 12:32:39;;;;;;;12.73;5.18;;;;;;;;;;5050704;28;20017;-74
2022/04/15 12:35:10;;;;;;;7.40;4.60;;;;;;;;;;5070018;28;20021;-76
2022/04/15 12:37:36;;;;;;;8.20;4.00;;;;;;;;;;5067126;28;20028;-75
2022/04/15 12:40:04;;;;;;;11.27;4.43;;;;;;;;;;5034805;28;20074;-75
2022/04/15 12:42:31;;;;;;;5.88;3.97;;;;;;;;;;5050138;28;20025;-75
2022/04/15 12:44:57;;;;;;;10.65;3.85;;;;;;;;;;5050342;28;20033;-73
2022/04/15 12:47:26;;;;;;;8.10;3.78;;;;;;;;;;5051706;28;20025;-81
2022/04/15 12:49:52;;;;;;;9.32;3.90;;;;;;;;;;5039503;28;20020;-78
2022/04/15 12:52:19;;;;;;;7.05;3.80;;;;;;;;;;5039005;28;20043;-77
2022/04/15 12:55:06;;;;;;;7.45;3.83;;;;;;;;;;5045178;28;20040;-75
2022/04/15 12:57:32;;;;;;;10.30;3.70;;;;;;;;;;5026311;28;20433;-75
2022/04/15 12:59:58;;;;;;;9.05;4.07;;;;;;;;;;5045502;28;20518;-76
2022/04/15 13:02:24;;;;;;;8.10;3.80;;;;;;;;;;5047930;28;20028;-78
2022/04/15 13:04:54;;;;;;;9.52;4.18;;;;;;;;;;5032283;28;20021;-76
2022/04/15 13:07:20;;;;;;;6.68;3.80;;;;;;;;;;5045066;28;20029;-75
2022/04/15 13:09:47;;;;;;;7.18;3.70;;;;;;;;;;5051170;28;20099;-78
2022/04/15 13:12:14;;;;;;;9.13;3.72;;;;;;;;;;5051660;28;20029;-73
2022/04/15 13:14:42;;;;;;;7.68;3.72;;;;;;;;;;5031945;28;20071;-74
2022/04/15 13:17:08;;;;;;;9.52;4.40;;;;;;;;;;5048671;28;20520;-73
2022/04/15 13:19:39;;;;;;;13.82;4.03;;;;;;;;;;5065911;28;20021;-74
2022/04/15 13:22:05;;;;;;;14.02;4.25;;;;;;;;;;5051300;28;20029;-74
2022/04/15 13:24:31;;;;;;;8.15;4.03;;;;;;;;;;5051266;28;20059;-74
2022/04/15 13:26:57;;;;;;;7.72;4.15;;;;;;;;;;5052062;28;20107;-82
2022/04/15 13:29:23;;;;;;;8.23;4.07;;;;;;;;;;5034667;28;20021;-77
2022/04/15 13:31:50;;;;;;;7.55;4.28;;;;;;;;;;5055424;28;20028;-78
2022/04/15 13:34:16;;;;;;;9.80;3.97;;;;;;;;;;5066197;28;20029;-77
2022/04/15 13:36:42;;;;;;;10.13;4.40;;;;;;;;;;5059883;28;20040;-76
2022/04/15 13:39:08;;;;;;;14.65;4.80;;;;;;;;;;5051847;28;20037;-76
2022/04/15 13:41:36;;;;;;;8.68;3.97;;;;;;;;;;5050687;28;20036;-75
2022/04/15 13:44:02;;;;;;;26.88;4.88;;;;;;;;;;5052034;28;20436;-75
2022/04/15 13:46:28;;;;;;;11.02;4.07;;;;;;;;;;5048512;28;20036;-71
2022/04/15 13:48:54;;;;;;;11.82;4.22;;;;;;;;;;5053668;28;20025;-77
2022/04/15 13:51:20;;;;;;;8.60;4.38;;;;;;;;;;5048231;28;20115;-77
2022/04/15 13:56:34;;;;;;;14.00;4.35;;;;;;;;;;5049542;28;20427;-77
2022/04/15 13:59:01;;;;;;;12.13;4.32;;;;;;;;;;5035246;28;20020;-79
2022/04/15 14:01:29;;;;;;;9.55;4.25;;;;;;;;;;5062911;28;20037;-71
2022/04/15 14:03:55;;;;;;;12.15;4.68;;;;;;;;;;5051389;28;20025;-71
2022/04/15 14:06:22;;;;;;;41.78;5.65;;;;;;;;;;5051983;28;20532;-81
2022/04/15 14:08:48;;;;;;;9.77;4.10;;;;;;;;;;5030765;28;20029;-74
2022/04/15 14:11:14;;;;;;;10.23;4.03;;;;;;;;;;5054370;28;20155;-75
2022/04/15 14:13:43;;;;;;;10.25;4.15;;;;;;;;;;5053774;28;20031;-74
2022/04/15 14:16:10;;;;;;;13.35;4.25;;;;;;;;;;5054044;28;20517;-73
2022/04/15 14:18:36;;;;;;;7.95;4.10;;;;;;;;;;5053972;28;20029;-79
2022/04/15 14:21:02;;;;;;;11.93;4.00;;;;;;;;;;5049229;28;20086;-78
2022/04/15 14:23:28;;;;;;;11.88;4.47;;;;;;;;;;5025265;28;20037;-79
2022/04/15 14:25:54;;;;;;;7.80;4.00;;;;;;;;;;5040756;28;20029;-77
2022/04/15 14:28:20;;;;;;;8.02;4.57;;;;;;;;;;5051084;28;20063;-77
2022/04/15 14:30:46;;;;;;;7.13;3.95;;;;;;;;;;5035176;28;20785;-80
2022/04/15 14:33:12;;;;;;;6.07;3.80;;;;;;;;;;5052760;28;20025;-77
2022/04/15 14:35:41;;;;;;;22.05;4.55;;;;;;;;;;5052871;28;20060;-78
2022/04/15 14:38:08;;;;;;;6.53;4.07;;;;;;;;;;5031465;28;20036;-77
2022/04/15 14:40:34;;;;;;;21.85;4.50;;;;;;;;;;5039928;28;20545;-81